Time;durP1;ratioP1;P1;durP2;ratioP2;P2;SDS_P1;SDS_P2;PMS_P1;PMS_P2;Temp;Humidity;BMP_temperature;BMP_pressure;BME280_temperature;BME280_humidity;BME280_pressure;Samples;Min_cycle;Max_cycle;Signal;HPM_P1;HPM_P2
2022/06/03 00:00:37;;;;;;;32.70;18.40;;;;;;;10.47;66.03;99272.44;433557;1268;108947;-42
2022/06/03 00:10:54;;;;;;;32.20;20.00;;;;;;;10.37;66.36;99276.75;433674;1268;101517;-44
2022/06/03 00:21:07;;;;;;;38.70;20.80;;;;;;;10.22;66.65;99268.77;432888;1271;108821;-41
2022/06/03 00:31:15;;;;;;;22.30;16.10;;;;;;;10.20;66.95;99264.73;432756;1270;99246;-43
2022/06/03 00:41:40;;;;;;;26.20;15.80;;;;;;;10.10;66.87;99260.35;432660;1271;112464;-42
2022/06/03 00:51:51;;;;;;;22.80;14.10;;;;;;;10.18;67.23;99257.20;432437;1270;109421;-43
2022/06/03 01:12:28;;;;;;;26.20;16.10;;;;;;;9.68;67.29;99249.23;432698;1271;108920;-41
2022/06/03 01:23:00;;;;;;;25.20;15.30;;;;;;;9.43;67.86;99253.77;434302;1258;98821;-41
2022/06/03 01:33:38;;;;;;;21.90;12.10;;;;;;;9.37;67.80;99245.21;433501;1267;112547;-43
2022/06/03 01:44:03;;;;;;;22.00;13.60;;;;;;;9.46;68.36;99244.15;433427;1267;108851;-43
2022/06/03 01:54:43;;;;;;;33.60;19.40;;;;;;;9.49;68.61;99242.40;433608;1267;99237;-44
2022/06/03 02:04:57;;;;;;;28.90;19.00;;;;;;;9.42;68.73;99243.14;433618;1268;108871;-42
2022/06/03 02:15:36;;;;;;;29.00;15.00;;;;;;;9.34;68.87;99255.14;433578;1268;98139;-41
2022/06/03 02:25:49;;;;;;;20.40;13.00;;;;;;;9.39;69.09;99261.54;433600;1268;113459;-42
2022/06/03 02:36:35;;;;;;;22.80;13.10;;;;;;;9.49;69.19;99258.89;433685;1268;108632;-41
2022/06/03 02:47:05;;;;;;;22.60;13.10;;;;;;;9.60;69.45;99262.39;433536;1268;99265;-42
2022/06/03 02:57:43;;;;;;;21.40;13.60;;;;;;;9.63;69.48;99261.92;433448;1268;108833;-41
2022/06/03 03:08:23;;;;;;;23.30;15.00;;;;;;;9.66;69.63;99268.00;433659;1268;98023;-41
2022/06/03 03:29:16;;;;;;;17.90;11.40;;;;;;;12.91;68.10;99275.64;433350;1268;108863;-42
2022/06/03 03:39:44;;;;;;;15.50;10.60;;;;;;;15.48;65.84;99279.08;433610;1268;99270;-42
2022/06/03 03:50:28;;;;;;;12.70;8.60;;;;;;;17.14;63.58;99287.34;433587;1268;108866;-42
2022/06/03 04:00:57;;;;;;;11.60;7.80;;;;;;;18.53;61.61;99289.73;433661;1268;99293;-43
2022/06/03 04:11:24;;;;;;;17.30;15.40;;;;;;;19.42;59.54;99294.33;433572;1268;112411;-42
2022/06/03 04:21:51;;;;;;;32.00;28.50;;;;;;;19.98;57.78;99296.59;433501;1268;108764;-42
2022/06/03 04:32:42;;;;;;;26.60;23.70;;;;;;;20.76;56.48;99299.51;433605;1268;98872;-43
2022/06/03 04:43:19;;;;;;;20.70;8.30;;;;;;;21.68;55.32;99300.92;433444;1268;108703;-41
2022/06/03 04:54:02;;;;;;;21.40;10.50;;;;;;;22.73;53.87;99304.33;433631;1268;99240;-43
2022/06/03 05:04:40;;;;;;;34.80;16.80;;;;;;;23.18;52.27;99305.41;433424;1268;112413;-43
2022/06/03 05:15:21;;;;;;;27.40;12.00;;;;;;;23.23;50.85;99312.39;433432;1268;108888;-42
2022/06/03 05:36:36;;;;;;;11.00;3.70;;;;;;;22.50;47.63;99326.21;434004;1268;108150;-42
2022/06/03 05:46:45;;;;;;;21.00;9.30;;;;;;;22.01;46.50;99318.44;433661;1268;99795;-41
2022/06/03 05:57:04;;;;;;;16.10;7.70;;;;;;;22.11;46.53;99323.16;433370;1268;112556;-44
2022/06/03 06:07:19;;;;;;;17.00;10.10;;;;;;;22.11;45.49;99317.63;433443;1268;109029;-42
2022/06/03 06:17:40;;;;;;;17.50;5.80;;;;;;;22.43;44.63;99322.92;433551;1268;99280;-43
2022/06/03 06:28:02;;;;;;;10.50;5.00;;;;;;;22.39;44.79;99317.09;433511;1268;108875;-41
2022/06/03 06:38:09;;;;;;;7.60;2.80;;;;;;;22.75;44.36;99313.58;433573;1268;99334;-43
2022/06/03 06:48:16;;;;;;;7.10;3.20;;;;;;;23.20;43.24;99307.38;433628;1268;112392;-42
2022/06/03 06:58:24;;;;;;;5.90;2.90;;;;;;;23.13;43.32;99308.89;433416;1267;108968;-42
2022/06/03 07:08:38;;;;;;;7.60;1.60;;;;;;;22.86;42.41;99301.92;433551;1268;99277;-45
2022/06/03 07:29:08;;;;;;;2.90;1.90;;;;;;;23.11;41.53;99289.23;433662;1268;98026;-44
2022/06/03 07:39:34;;;;;;;1.70;1.60;;;;;;;22.93;41.55;99291.45;433488;1268;112597;-42
2022/06/03 07:49:53;;;;;;;4.90;1.70;;;;;;;23.45;41.60;99292.04;433976;1268;109243;-41
2022/06/03 07:59:57;;;;;;;6.00;2.10;;;;;;;24.28;42.58;99286.65;434020;1268;99302;-41
2022/06/03 08:20:31;;;;;;;1.80;1.50;;;;;;;23.97;39.56;99277.34;433914;1267;108946;-43
2022/06/03 08:30:39;;;;;;;1.90;1.50;;;;;;;23.80;40.46;99277.40;434017;1267;99244;-42
2022/06/03 08:40:59;;;;;;;3.30;2.20;;;;;;;23.98;40.26;99274.72;433802;1267;108769;-43
2022/06/03 08:51:06;;;;;;;4.10;1.80;;;;;;;24.09;40.92;99275.34;433883;1267;99318;-44
2022/06/03 09:01:17;;;;;;;1.90;1.70;;;;;;;24.13;40.20;99272.35;433950;1267;112597;-40
2022/06/03 09:11:34;;;;;;;1.70;1.40;;;;;;;24.10;39.58;99267.60;433999;1268;108726;-44
2022/06/03 09:21:44;;;;;;;2.80;1.30;;;;;;;24.24;39.03;99261.27;434129;1268;99346;-43
2022/06/03 09:31:52;;;;;;;1.60;1.40;;;;;;;24.37;38.41;99258.71;433497;1268;635671;-42
2022/06/03 09:42:02;;;;;;;1.90;1.70;;;;;;;24.32;38.74;99245.29;434030;1268;99252;-41
2022/06/03 09:52:12;;;;;;;1.70;1.30;;;;;;;24.49;37.48;99243.09;433722;1268;112426;-43
2022/06/03 10:02:19;;;;;;;1.60;1.50;;;;;;;24.41;37.35;99246.27;433907;1267;108745;-46
2022/06/03 10:22:55;;;;;;;1.90;1.70;;;;;;;24.37;37.21;99225.49;433977;1268;108816;-43
2022/06/03 10:33:05;;;;;;;4.40;1.80;;;;;;;24.85;35.93;99222.75;433835;1267;99282;-40
2022/06/03 10:43:12;;;;;;;4.30;1.60;;;;;;;24.91;35.18;99209.02;434022;1268;112399;-40
2022/06/03 11:03:54;;;;;;;2.70;1.40;;;;;;;26.00;35.75;99192.70;434063;1268;99281;-45
2022/06/03 11:14:26;;;;;;;3.90;1.20;;;;;;;25.55;33.70;99187.59;434105;1268;109063;-43
2022/06/03 11:24:33;;;;;;;3.20;1.80;;;;;;;25.40;33.28;99177.67;434037;1268;98027;-40
2022/06/03 11:34:51;;;;;;;2.00;1.40;;;;;;;25.56;33.40;99169.21;433923;1267;112466;-42
2022/06/03 11:45:04;;;;;;;2.10;1.00;;;;;;;25.78;33.51;99161.66;434283;1267;109037;-41
2022/06/03 11:55:12;;;;;;;2.40;1.50;;;;;;;25.53;32.85;99160.86;433919;1268;99340;-42
2022/06/03 12:05:28;;;;;;;2.30;1.60;;;;;;;25.09;31.85;99150.86;434121;1267;108863;-41
2022/06/03 12:25:51;;;;;;;5.30;1.20;;;;;;;25.54;33.01;99133.38;433896;1267;112688;-43
2022/06/03 12:36:04;;;;;;;2.90;1.20;;;;;;;25.26;31.09;99125.94;434027;1267;108841;-41
2022/06/03 12:46:38;;;;;;;13.80;2.50;;;;;;;25.29;30.97;99112.92;434089;1267;99278;-40
2022/06/03 12:56:47;;;;;;;2.00;1.40;;;;;;;25.25;31.24;99105.23;433989;1267;108883;-40
2022/06/03 13:07:14;;;;;;;5.60;1.10;;;;;;;25.03;30.53;99093.30;434060;1267;99253;-41
2022/06/03 13:17:57;;;;;;;2.50;1.00;;;;;;;25.15;30.67;99075.33;434350;1267;112602;-43
2022/06/03 13:28:19;;;;;;;2.00;1.50;;;;;;;25.35;31.49;99062.02;433816;1268;108691;-41
2022/06/03 13:38:39;;;;;;;1.60;1.50;;;;;;;25.31;31.71;99043.73;433954;1267;99265;-44
2022/06/03 13:48:51;;;;;;;3.70;1.70;;;;;;;25.09;31.45;99030.19;433950;1267;107528;-41
2022/06/03 13:59:02;;;;;;;27.10;3.40;;;;;;;24.84;31.44;99015.47;434085;1268;99244;-40
2022/06/03 14:09:08;;;;;;;3.20;2.00;;;;;;;24.76;31.45;99002.17;434026;1268;112526;-45
2022/06/03 14:29:54;;;;;;;;;;;;;;;24.70;30.57;98984.91;433932;1268;99961;-40
2022/06/03 14:39:59;;;;;;;2.00;1.80;;;;;;;24.87;31.11;98980.77;433649;1268;108799;-41
2022/06/03 14:50:16;;;;;;;3.60;2.00;;;;;;;25.19;31.95;98972.05;433986;1268;99295;-41
2022/06/03 15:00:39;;;;;;;4.00;1.40;;;;;;;25.16;31.55;98970.42;433999;1268;111263;-41
2022/06/03 15:10:43;;;;;;;3.50;1.80;;;;;;;24.87;30.78;98956.00;434023;1267;108764;-42
2022/06/03 15:20:56;;;;;;;2.20;2.00;;;;;;;24.87;31.23;98951.17;434330;1267;99273;-41
2022/06/03 15:31:07;;;;;;;5.20;2.00;;;;;;;24.96;31.59;98940.14;433589;1268;108823;-40
2022/06/03 15:41:14;;;;;;;3.40;2.20;;;;;;;24.95;31.87;98922.54;433442;1267;98824;-43
2022/06/03 15:51:23;;;;;;;4.10;1.90;;;;;;;24.89;31.82;98922.50;434232;1267;112512;-41
2022/06/03 16:01:33;;;;;;;4.40;1.80;;;;;;;24.75;32.47;98928.71;434134;1268;108864;-43
2022/06/03 16:11:46;;;;;;;5.80;2.50;;;;;;;24.45;32.18;98922.11;434055;1267;99371;-45
2022/06/03 16:21:57;;;;;;;2.40;2.20;;;;;;;24.30;32.52;98920.46;434002;1267;108779;-41
2022/06/03 16:32:04;;;;;;;4.10;1.70;;;;;;;24.35;32.90;98922.43;434115;1267;99276;-41
2022/06/03 16:42:08;;;;;;;3.60;1.70;;;;;;;24.19;33.12;98933.82;434201;1267;112085;-40
2022/06/03 17:02:44;;;;;;;4.00;2.40;;;;;;;23.86;33.81;98935.59;433959;1267;99245;-41
2022/06/03 17:12:53;;;;;;;5.70;2.50;;;;;;;23.74;34.06;98916.41;434251;1267;108786;-43
2022/06/03 17:23:15;;;;;;;5.30;3.60;;;;;;;23.44;33.84;98904.12;434036;1267;98872;-43
2022/06/03 17:33:23;;;;;;;6.90;2.30;;;;;;;23.09;34.23;98896.01;434152;1267;112380;-44
2022/06/03 17:43:34;;;;;;;2.80;2.50;;;;;;;22.63;34.73;98889.89;434027;1268;108908;-43
2022/06/03 18:14:27;;;;;;;4.10;3.10;;;;;;;21.66;36.81;98855.16;433924;1267;107388;-41
2022/06/03 18:24:53;;;;;;;3.80;3.10;;;;;;;21.46;37.28;98841.43;434160;1267;99244;-42
2022/06/03 18:35:07;;;;;;;3.50;3.20;;;;;;;21.24;37.84;98852.87;434173;1268;108787;-41
2022/06/03 18:45:21;;;;;;;5.40;3.30;;;;;;;20.98;38.20;98862.98;434119;1267;99250;-43
2022/06/03 18:55:37;;;;;;;6.20;4.30;;;;;;;20.75;38.58;98875.30;434139;1267;112341;-41
2022/06/03 19:05:47;;;;;;;4.80;4.10;;;;;;;20.49;39.09;98888.53;434136;1267;108912;-42
2022/06/03 19:15:53;;;;;;;6.50;4.50;;;;;;;20.20;39.49;98903.25;434208;1268;99241;-42
2022/06/03 19:25:59;;;;;;;5.40;4.90;;;;;;;20.00;40.05;98910.50;434183;1268;107803;-42
2022/06/03 19:36:24;;;;;;;9.60;5.00;;;;;;;19.79;40.65;98905.88;433987;1268;99259;-42
2022/06/03 19:46:49;;;;;;;8.90;5.10;;;;;;;19.47;41.38;98906.30;434090;1265;112697;-44
2022/06/03 20:07:05;;;;;;;7.40;4.60;;;;;;;19.20;42.26;98899.89;433818;1268;98463;-43
2022/06/03 20:17:13;;;;;;;6.50;5.10;;;;;;;18.98;42.89;98900.91;434047;1267;108590;-45
2022/06/03 20:27:22;;;;;;;9.50;5.40;;;;;;;18.91;43.28;98908.87;433983;1267;98850;-41
2022/06/03 20:37:31;;;;;;;7.20;6.20;;;;;;;18.78;43.79;98905.36;434100;1268;112381;-45
2022/06/03 20:47:38;;;;;;;11.80;5.90;;;;;;;18.48;44.24;98897.43;433953;1267;108910;-42
2022/06/03 20:57:46;;;;;;;11.10;6.20;;;;;;;18.08;45.07;98896.35;433847;1268;98849;-42
2022/06/03 21:18:21;;;;;;;10.70;6.90;;;;;;;17.31;46.61;98877.91;433998;1267;99272;-43
2022/06/03 21:28:28;;;;;;;8.80;6.20;;;;;;;17.23;47.02;98875.42;433746;1267;529583;-43
2022/06/03 21:39:02;;;;;;;8.70;6.30;;;;;;;17.27;47.21;98872.71;433844;1267;108953;-42
2022/06/03 21:59:30;;;;;;;9.00;7.40;;;;;;;17.19;47.51;98868.59;434123;1267;107790;-43
2022/06/03 22:09:37;;;;;;;10.00;6.70;;;;;;;17.08;47.88;98871.21;434015;1267;99268;-41
2022/06/03 22:30:00;;;;;;;13.50;7.70;;;;;;;16.89;48.48;98851.80;433897;1268;108828;-43
2022/06/03 22:40:07;;;;;;;13.10;8.30;;;;;;;17.00;48.42;98837.05;434013;1268;99356;-41
2022/06/03 22:50:14;;;;;;;16.70;9.90;;;;;;;17.09;48.44;98832.48;433862;1268;109155;-41
2022/06/03 23:00:19;;;;;;;16.40;8.50;;;;;;;17.13;48.37;98826.48;433938;1268;99262;-44
2022/06/03 23:10:27;;;;;;;12.30;7.20;;;;;;;17.04;48.35;98823.92;434028;1267;112470;-44
2022/06/03 23:20:33;;;;;;;12.60;6.80;;;;;;;16.90;48.62;98814.83;433890;1268;108426;-42
2022/06/03 23:30:43;;;;;;;10.50;6.00;;;;;;;16.81;48.92;98803.77;434195;1268;98885;-44
2022/06/03 23:40:51;;;;;;;8.00;6.30;;;;;;;16.83;49.11;98788.83;433921;1268;107206;-41
2022/06/03 23:50:58;;;;;;;11.50;5.90;;;;;;;16.81;49.06;98785.66;434034;1268;98046;-41
